Time;durP1;ratioP1;P1;durP2;ratioP2;P2;SDS_P1;SDS_P2;PMS_P1;PMS_P2;Temp;Humidity;BMP_temperature;BMP_pressure;BME280_temperature;BME280_humidity;BME280_pressure;Samples;Min_cycle;Max_cycle;Signal;HPM_P1;HPM_P2
2021/06/06 00:01:20;;;;;;;27.90;21.10;;;16.50;99.90;;;;;;4993972;28;20680;-66
2021/06/06 00:03:53;;;;;;;22.70;19.87;;;16.50;99.90;;;;;;4995383;28;20657;-66
2021/06/06 00:06:20;;;;;;;26.80;22.43;;;16.50;99.90;;;;;;4995028;28;20618;-66
2021/06/06 00:08:47;;;;;;;24.50;19.57;;;16.40;99.90;;;;;;4995107;28;20630;-67
2021/06/06 00:11:26;;;;;;;23.23;20.87;;;16.40;99.90;;;;;;4995217;28;20618;-67
2021/06/06 00:13:54;;;;;;;27.43;21.63;;;16.40;99.90;;;;;;4993803;28;20566;-67
2021/06/06 00:16:43;;;;;;;25.37;21.87;;;16.40;99.90;;;;;;4994793;28;21153;-67
2021/06/06 00:19:10;;;;;;;24.70;20.63;;;16.30;99.90;;;;;;4995213;28;20597;-67
2021/06/06 00:21:38;;;;;;;30.17;20.77;;;16.40;99.90;;;;;;4994801;28;20969;-67
2021/06/06 00:24:07;;;;;;;22.90;20.10;;;16.30;99.90;;;;;;4994583;28;20586;-67
2021/06/06 00:26:34;;;;;;;26.03;22.07;;;16.30;99.90;;;;;;4994800;28;20594;-67
2021/06/06 00:29:01;;;;;;;24.80;20.97;;;16.30;99.90;;;;;;4994658;28;20604;-67
2021/06/06 00:31:27;;;;;;;23.00;20.60;;;16.30;99.90;;;;;;4994613;28;20610;-67
2021/06/06 00:33:54;;;;;;;22.70;19.73;;;16.30;99.90;;;;;;4994654;28;20602;-67
2021/06/06 00:36:21;;;;;;;24.80;20.30;;;16.30;99.90;;;;;;4994555;28;20598;-67
2021/06/06 00:38:48;;;;;;;27.10;20.63;;;16.40;99.90;;;;;;4994551;28;20992;-67
2021/06/06 00:41:16;;;;;;;22.77;18.90;;;16.40;99.90;;;;;;4994463;28;20626;-67
2021/06/06 00:43:42;;;;;;;24.97;22.33;;;16.30;99.90;;;;;;4994267;28;20668;-67
2021/06/06 00:46:09;;;;;;;24.30;19.27;;;16.40;99.90;;;;;;4994567;28;20554;-67
2021/06/06 00:48:37;;;;;;;28.90;22.60;;;16.30;99.90;;;;;;4994522;28;20597;-67
2021/06/06 00:51:30;;;;;;;22.63;20.33;;;16.30;99.90;;;;;;4993368;28;20997;-67
2021/06/06 00:54:02;;;;;;;24.73;18.93;;;16.20;99.90;;;;;;4983724;28;20628;-67
2021/06/06 00:56:29;;;;;;;24.03;20.30;;;16.20;99.90;;;;;;4994308;28;20572;-67
2021/06/06 00:58:59;;;;;;;21.40;18.90;;;16.30;99.90;;;;;;4993336;28;20705;-67
2021/06/06 01:01:26;;;;;;;23.77;19.43;;;16.20;99.90;;;;;;4994232;28;20593;-67
2021/06/06 01:03:54;;;;;;;19.83;17.80;;;16.20;99.90;;;;;;4993905;28;21094;-67
2021/06/06 01:06:39;;;;;;;28.10;18.80;;;16.30;99.90;;;;;;4993952;28;20622;-67
2021/06/06 01:09:07;;;;;;;23.30;18.73;;;16.30;99.90;;;;;;4993957;28;20673;-67
2021/06/06 01:12:05;;;;;;;22.63;17.60;;;16.20;99.90;;;;;;4994049;28;20594;-67
2021/06/06 01:14:43;;;;;;;23.10;20.60;;;16.10;99.90;;;;;;4994085;28;20921;-67
2021/06/06 01:17:20;;;;;;;22.23;18.77;;;16.20;99.90;;;;;;4994107;28;20555;-67
2021/06/06 01:19:57;;;;;;;24.27;19.07;;;16.10;99.90;;;;;;4994000;28;20579;-67
2021/06/06 01:22:42;;;;;;;25.63;17.27;;;16.20;99.90;;;;;;4993874;28;20696;-67
2021/06/06 01:25:21;;;;;;;19.30;17.30;;;16.20;99.90;;;;;;4993946;28;20554;-67
2021/06/06 01:27:56;;;;;;;20.73;18.17;;;16.20;99.90;;;;;;4993989;28;20625;-67
2021/06/06 01:30:25;;;;;;;22.50;17.23;;;16.20;99.90;;;;;;4993907;28;21092;-67
2021/06/06 01:33:03;;;;;;;22.83;18.57;;;16.10;99.90;;;;;;4993884;28;20598;-67
2021/06/06 01:35:43;;;;;;;25.10;19.13;;;16.10;99.90;;;;;;4993253;28;20985;-67
2021/06/06 01:38:17;;;;;;;24.80;21.33;;;16.10;99.90;;;;;;4997851;28;20561;-67
2021/06/06 01:40:46;;;;;;;21.70;19.10;;;16.00;99.90;;;;;;4998122;28;20641;-67
2021/06/06 01:43:18;;;;;;;23.80;19.60;;;16.00;99.90;;;;;;4997314;28;21016;-67
2021/06/06 01:45:53;;;;;;;24.13;20.50;;;16.00;99.90;;;;;;4997729;28;20562;-66
2021/06/06 01:48:19;;;;;;;22.37;18.33;;;16.00;99.90;;;;;;4997796;28;20553;-67
2021/06/06 01:50:59;;;;;;;21.77;18.47;;;16.00;99.90;;;;;;4997746;28;20586;-67
2021/06/06 01:53:26;;;;;;;24.20;18.93;;;16.00;99.90;;;;;;4997834;28;20566;-66
2021/06/06 01:55:57;;;;;;;23.87;18.97;;;16.00;99.90;;;;;;4997358;28;20993;-66
2021/06/06 01:58:24;;;;;;;20.50;18.30;;;16.00;99.90;;;;;;4997670;28;20562;-66
2021/06/06 02:01:01;;;;;;;21.90;19.20;;;16.00;99.90;;;;;;4997267;28;20616;-66
2021/06/06 02:03:27;;;;;;;23.30;19.73;;;16.00;99.90;;;;;;4997550;28;21218;-66
2021/06/06 02:05:57;;;;;;;25.67;18.30;;;16.00;99.90;;;;;;4996044;28;20672;-68
2021/06/06 02:08:28;;;;;;;19.03;17.07;;;16.00;99.90;;;;;;4997220;28;20605;-67
2021/06/06 02:11:18;;;;;;;23.17;18.57;;;16.00;99.90;;;;;;4997424;28;20562;-67
2021/06/06 02:13:50;;;;;;;20.67;17.97;;;16.00;99.90;;;;;;4989396;28;20641;-67
2021/06/06 02:16:25;;;;;;;20.33;18.23;;;16.00;99.90;;;;;;4997300;28;20558;-67
2021/06/06 02:18:51;;;;;;;22.53;18.80;;;16.00;99.90;;;;;;4997231;28;20554;-67
2021/06/06 02:21:18;;;;;;;20.23;18.10;;;16.10;99.90;;;;;;4997243;28;20975;-67
2021/06/06 02:23:47;;;;;;;20.10;16.93;;;16.10;99.90;;;;;;4997039;28;20625;-67
2021/06/06 02:26:32;;;;;;;23.60;16.77;;;16.10;99.90;;;;;;4997029;28;20596;-67
2021/06/06 02:29:20;;;;;;;21.17;16.97;;;16.20;99.90;;;;;;4996611;28;20607;-67
2021/06/06 02:32:01;;;;;;;20.73;17.57;;;16.20;99.90;;;;;;4995734;28;20641;-67
2021/06/06 02:34:39;;;;;;;21.10;17.33;;;16.30;99.90;;;;;;4996762;28;20596;-67
2021/06/06 02:37:16;;;;;;;24.77;17.80;;;16.20;99.90;;;;;;4997035;28;21182;-66
2021/06/06 02:39:47;;;;;;;21.40;18.33;;;16.20;99.90;;;;;;4997224;28;20585;-67
2021/06/06 02:42:39;;;;;;;26.03;18.17;;;16.20;99.90;;;;;;4996629;28;20668;-66
2021/06/06 02:45:17;;;;;;;23.87;19.00;;;16.10;99.90;;;;;;4996504;28;20664;-67
2021/06/06 02:47:46;;;;;;;23.30;16.70;;;16.20;99.90;;;;;;4996531;28;20537;-66
2021/06/06 02:50:19;;;;;;;22.00;18.70;;;16.10;99.90;;;;;;4996593;28;20621;-66
2021/06/06 02:52:57;;;;;;;23.40;19.33;;;16.10;99.90;;;;;;4996862;28;20632;-67
2021/06/06 02:55:28;;;;;;;27.00;20.43;;;16.20;99.90;;;;;;4996573;28;20554;-66
2021/06/06 02:58:04;;;;;;;22.23;19.33;;;16.20;99.90;;;;;;4996661;28;20722;-66
2021/06/06 03:00:36;;;;;;;22.13;18.27;;;16.20;99.90;;;;;;4996455;28;20627;-66
2021/06/06 03:03:20;;;;;;;24.73;20.57;;;16.30;99.90;;;;;;4996375;28;20661;-66
2021/06/06 03:05:48;;;;;;;27.83;21.03;;;16.30;99.90;;;;;;4996580;28;20962;-66
2021/06/06 03:08:15;;;;;;;26.47;19.57;;;16.30;99.90;;;;;;4995322;28;20594;-66
2021/06/06 03:10:42;;;;;;;26.70;20.20;;;16.20;99.90;;;;;;4996421;28;20606;-66
2021/06/06 03:13:25;;;;;;;32.60;20.80;;;16.20;99.90;;;;;;4996127;28;20664;-66
2021/06/06 03:15:57;;;;;;;29.00;20.67;;;16.20;99.90;;;;;;4996312;28;20953;-67
2021/06/06 03:18:31;;;;;;;26.63;20.80;;;16.20;99.90;;;;;;4996361;28;20600;-67
2021/06/06 03:21:10;;;;;;;30.10;23.47;;;16.20;99.90;;;;;;4995960;28;20716;-67
2021/06/06 03:23:39;;;;;;;29.37;21.07;;;16.20;99.90;;;;;;4996066;28;20653;-67
2021/06/06 03:26:08;;;;;;;28.57;22.13;;;16.20;99.90;;;;;;4994760;28;20629;-67
2021/06/06 03:28:38;;;;;;;30.90;22.33;;;16.20;99.90;;;;;;4995998;28;20598;-67
2021/06/06 03:31:07;;;;;;;29.23;21.73;;;16.20;99.90;;;;;;4995897;28;21151;-67
2021/06/06 03:33:42;;;;;;;31.87;23.00;;;16.10;99.90;;;;;;4995742;28;21141;-67
2021/06/06 03:36:14;;;;;;;31.93;22.10;;;16.20;99.90;;;;;;4995929;28;20624;-67
2021/06/06 03:38:41;;;;;;;30.63;23.37;;;16.10;99.90;;;;;;4995659;28;20636;-67
2021/06/06 03:41:07;;;;;;;25.43;22.63;;;16.20;99.90;;;;;;4995702;28;20628;-67
2021/06/06 03:43:34;;;;;;;32.03;23.13;;;16.10;99.90;;;;;;4995607;28;20657;-67
2021/06/06 03:46:01;;;;;;;33.17;23.33;;;16.20;99.90;;;;;;4995621;28;20580;-67
2021/06/06 03:48:27;;;;;;;29.67;23.00;;;16.20;99.90;;;;;;4995583;28;21148;-67
2021/06/06 03:50:54;;;;;;;28.90;23.77;;;16.20;99.90;;;;;;4995859;28;20601;-66
2021/06/06 03:53:23;;;;;;;31.27;22.27;;;16.20;99.90;;;;;;4995443;28;20609;-67
2021/06/06 03:55:50;;;;;;;28.23;23.07;;;16.20;99.90;;;;;;4995373;28;20594;-67
2021/06/06 03:58:17;;;;;;;35.83;23.63;;;16.10;99.90;;;;;;4994820;28;20598;-67
2021/06/06 04:00:47;;;;;;;29.43;23.30;;;16.20;99.90;;;;;;4995669;28;20713;-67
2021/06/06 04:03:16;;;;;;;28.90;22.80;;;16.10;99.90;;;;;;4995344;28;21209;-67
2021/06/06 04:05:43;;;;;;;31.70;25.07;;;16.20;99.90;;;;;;4995454;28;20622;-66
2021/06/06 04:08:10;;;;;;;29.10;22.70;;;16.30;99.90;;;;;;4995314;28;20968;-66
2021/06/06 04:10:38;;;;;;;27.30;21.07;;;16.20;99.90;;;;;;4995151;28;20622;-66
2021/06/06 04:13:05;;;;;;;31.17;20.47;;;16.30;99.90;;;;;;4993920;28;20621;-66
2021/06/06 04:15:32;;;;;;;25.70;21.77;;;16.20;99.90;;;;;;4994956;28;20673;-67
2021/06/06 04:18:14;;;;;;;29.87;23.10;;;16.10;99.90;;;;;;4994121;28;20745;-66
2021/06/06 04:20:42;;;;;;;34.70;24.37;;;16.10;99.90;;;;;;4993535;28;20641;-67
2021/06/06 04:23:09;;;;;;;29.07;23.30;;;16.00;99.90;;;;;;4994618;28;20648;-67
2021/06/06 04:25:35;;;;;;;34.20;24.77;;;16.00;99.90;;;;;;4994940;28;20628;-67
2021/06/06 04:28:02;;;;;;;31.40;23.90;;;16.00;99.90;;;;;;4994710;28;20602;-67
2021/06/06 04:30:29;;;;;;;34.77;25.13;;;15.90;99.90;;;;;;4994531;28;20626;-67
2021/06/06 04:32:56;;;;;;;34.37;25.10;;;16.00;99.90;;;;;;4994638;28;20953;-67
2021/06/06 04:35:23;;;;;;;34.37;24.10;;;16.00;99.90;;;;;;4994418;28;21144;-67
2021/06/06 04:37:49;;;;;;;34.90;24.37;;;16.00;99.90;;;;;;4994533;28;20605;-67
2021/06/06 04:40:16;;;;;;;35.50;23.53;;;16.00;99.90;;;;;;4994330;28;20624;-67
2021/06/06 04:42:43;;;;;;;34.53;24.73;;;16.00;99.90;;;;;;4994447;28;20598;-67
2021/06/06 04:45:12;;;;;;;35.30;23.70;;;16.00;99.90;;;;;;4994266;28;20627;-67
2021/06/06 04:47:39;;;;;;;37.67;25.20;;;16.10;99.90;;;;;;4994591;28;20657;-67
2021/06/06 04:50:08;;;;;;;37.70;23.90;;;16.00;99.90;;;;;;4994484;28;20622;-67
2021/06/06 04:52:37;;;;;;;38.13;22.97;;;16.10;99.90;;;;;;4994495;28;20632;-67
2021/06/06 04:55:08;;;;;;;32.00;23.47;;;16.20;99.90;;;;;;4994348;28;21013;-67
2021/06/06 04:57:35;;;;;;;36.50;23.70;;;16.20;99.90;;;;;;4994512;28;21121;-67
2021/06/06 05:00:07;;;;;;;31.73;22.87;;;16.00;99.90;;;;;;4994430;28;21144;-68
2021/06/06 05:02:33;;;;;;;38.13;23.87;;;16.00;99.90;;;;;;4994350;28;20605;-67
2021/06/06 05:04:59;;;;;;;31.60;22.33;;;16.10;99.90;;;;;;4994307;28;20641;-67
2021/06/06 05:07:26;;;;;;;37.03;23.93;;;15.90;99.90;;;;;;4992812;28;20633;-67
2021/06/06 05:09:52;;;;;;;33.17;23.27;;;15.90;99.90;;;;;;4993611;28;20629;-67
2021/06/06 05:12:18;;;;;;;37.77;23.70;;;15.90;99.90;;;;;;4994040;28;20636;-69
2021/06/06 05:14:45;;;;;;;36.20;22.77;;;15.90;99.90;;;;;;4994231;28;20617;-67
2021/06/06 05:17:11;;;;;;;35.83;24.00;;;15.90;99.90;;;;;;4993895;28;20602;-68
2021/06/06 05:19:38;;;;;;;41.10;24.70;;;16.00;99.90;;;;;;4992581;28;20630;-67
2021/06/06 05:22:05;;;;;;;40.13;24.67;;;16.00;99.90;;;;;;4993613;28;20594;-68
2021/06/06 05:24:32;;;;;;;36.83;24.23;;;15.90;99.90;;;;;;4993848;28;21196;-67
2021/06/06 05:26:59;;;;;;;37.87;23.87;;;15.90;99.90;;;;;;4993795;28;20590;-67
2021/06/06 05:29:25;;;;;;;41.13;25.30;;;15.90;99.90;;;;;;4993710;28;20613;-68
2021/06/06 05:31:52;;;;;;;37.70;25.10;;;15.90;99.90;;;;;;4993778;28;20652;-67
2021/06/06 05:34:19;;;;;;;40.13;25.00;;;15.90;99.90;;;;;;4993453;28;21034;-67
2021/06/06 05:36:46;;;;;;;44.13;25.47;;;15.90;99.90;;;;;;4993420;28;20685;-67
2021/06/06 05:39:13;;;;;;;44.30;25.70;;;15.80;99.90;;;;;;4993929;28;20967;-67
2021/06/06 05:41:40;;;;;;;40.57;25.43;;;15.90;99.90;;;;;;4993687;28;21187;-67
2021/06/06 05:44:07;;;;;;;41.10;24.77;;;15.90;99.90;;;;;;4993528;28;20662;-67
2021/06/06 05:46:34;;;;;;;39.80;26.20;;;16.00;99.90;;;;;;4993733;28;20598;-67
2021/06/06 05:49:01;;;;;;;41.80;25.33;;;16.10;99.90;;;;;;4993582;28;21172;-67
2021/06/06 05:51:27;;;;;;;39.53;25.43;;;16.20;99.90;;;;;;4993739;28;20596;-67
2021/06/06 05:53:54;;;;;;;41.60;24.00;;;16.20;99.90;;;;;;4992348;28;21012;-67
2021/06/06 05:56:22;;;;;;;35.13;23.27;;;16.20;99.90;;;;;;4993728;28;20598;-67
2021/06/06 05:58:49;;;;;;;47.27;23.13;;;16.10;99.90;;;;;;4993724;28;20606;-67
2021/06/06 06:01:18;;;;;;;39.40;24.17;;;16.10;99.90;;;;;;4993582;28;20718;-67
2021/06/06 06:03:45;;;;;;;39.83;24.60;;;16.10;99.90;;;;;;4993295;28;20660;-67
2021/06/06 06:06:11;;;;;;;33.53;22.87;;;16.10;99.90;;;;;;4992638;28;20622;-67
2021/06/06 06:08:41;;;;;;;31.87;23.00;;;16.10;99.90;;;;;;4993721;28;20582;-68
2021/06/06 06:11:10;;;;;;;36.83;24.27;;;16.10;99.90;;;;;;4993615;28;20644;-67
2021/06/06 06:13:37;;;;;;;38.47;24.17;;;16.10;99.90;;;;;;4993426;28;20612;-68
2021/06/06 06:16:07;;;;;;;38.17;24.80;;;16.20;99.90;;;;;;4993557;28;20634;-67
2021/06/06 06:18:34;;;;;;;42.60;24.50;;;16.20;99.90;;;;;;4993693;28;20562;-67
2021/06/06 06:21:01;;;;;;;35.97;23.53;;;16.20;99.90;;;;;;4993472;28;20598;-66
2021/06/06 06:23:28;;;;;;;41.30;26.60;;;16.20;99.90;;;;;;4997240;28;21046;-67
2021/06/06 06:25:55;;;;;;;38.93;25.87;;;16.30;99.90;;;;;;4997093;28;20617;-68
2021/06/06 06:28:23;;;;;;;38.83;24.60;;;16.30;99.90;;;;;;4996907;28;20604;-68
2021/06/06 06:30:49;;;;;;;36.83;26.23;;;16.30;99.90;;;;;;4996938;28;20591;-68
2021/06/06 06:33:16;;;;;;;40.60;26.27;;;16.30;99.90;;;;;;4996912;28;20609;-68
2021/06/06 06:35:42;;;;;;;39.33;25.93;;;16.20;99.90;;;;;;4997082;28;20692;-67
2021/06/06 06:38:10;;;;;;;42.27;25.20;;;16.20;99.90;;;;;;4996915;28;21003;-67
2021/06/06 06:40:37;;;;;;;34.10;24.10;;;16.30;99.90;;;;;;4996550;28;20753;-67
2021/06/06 06:43:04;;;;;;;37.37;25.10;;;16.30;99.90;;;;;;4996563;28;20598;-67
2021/06/06 06:45:35;;;;;;;36.40;25.10;;;16.30;99.90;;;;;;4996559;28;20736;-67
2021/06/06 06:48:04;;;;;;;37.67;24.20;;;16.40;99.90;;;;;;4995450;28;20933;-67
2021/06/06 06:50:31;;;;;;;35.67;24.80;;;16.40;99.90;;;;;;4996578;28;20984;-68
2021/06/06 06:52:58;;;;;;;38.03;25.57;;;16.40;99.90;;;;;;4996744;28;20598;-67
2021/06/06 06:55:25;;;;;;;39.33;24.70;;;16.40;99.90;;;;;;4996703;28;20630;-67
2021/06/06 06:57:52;;;;;;;33.17;22.83;;;16.30;99.90;;;;;;4996560;28;20576;-67
2021/06/06 07:00:24;;;;;;;36.10;22.90;;;16.40;99.90;;;;;;4996447;28;20620;-67
2021/06/06 07:02:50;;;;;;;40.00;24.97;;;16.50;99.90;;;;;;4996481;28;20554;-68
2021/06/06 07:05:17;;;;;;;41.47;25.03;;;16.60;99.90;;;;;;4996195;28;20650;-68
2021/06/06 07:07:44;;;;;;;47.37;25.90;;;16.60;99.90;;;;;;4996265;28;20972;-67
2021/06/06 07:10:13;;;;;;;37.60;24.83;;;16.70;99.90;;;;;;4996305;28;20606;-67
2021/06/06 07:12:40;;;;;;;37.67;24.57;;;16.70;99.90;;;;;;4996108;28;20569;-67
2021/06/06 07:15:11;;;;;;;33.83;23.97;;;16.70;99.90;;;;;;4996209;28;20610;-67
2021/06/06 07:17:38;;;;;;;40.03;25.30;;;16.60;99.90;;;;;;4996189;28;20560;-67
2021/06/06 07:20:07;;;;;;;32.50;23.60;;;16.80;99.90;;;;;;4996029;28;20575;-67
2021/06/06 07:22:34;;;;;;;37.40;24.57;;;16.90;99.90;;;;;;4996064;28;20663;-67
2021/06/06 07:25:01;;;;;;;37.90;24.50;;;16.90;99.90;;;;;;4995831;28;20629;-67
2021/06/06 07:27:30;;;;;;;35.80;25.97;;;16.80;99.90;;;;;;4995990;28;20587;-67
2021/06/06 07:29:56;;;;;;;36.80;25.27;;;16.80;99.90;;;;;;4995946;28;20645;-67
2021/06/06 07:32:23;;;;;;;38.37;25.00;;;16.90;99.90;;;;;;4995761;28;20997;-67
2021/06/06 07:34:51;;;;;;;34.53;24.47;;;17.00;99.90;;;;;;4995197;28;20640;-67
2021/06/06 07:37:18;;;;;;;43.20;25.63;;;17.00;99.90;;;;;;4994606;28;20722;-68
2021/06/06 07:39:45;;;;;;;43.13;28.03;;;17.00;99.90;;;;;;4994632;28;20666;-67
2021/06/06 07:42:13;;;;;;;43.30;26.67;;;17.10;99.90;;;;;;4995595;28;20606;-67
2021/06/06 07:44:40;;;;;;;42.10;29.20;;;17.30;99.90;;;;;;4995391;28;20707;-67
2021/06/06 07:47:08;;;;;;;41.00;28.37;;;17.40;99.90;;;;;;4995882;28;20602;-67
2021/06/06 07:49:38;;;;;;;39.70;28.00;;;17.50;99.90;;;;;;4995762;28;20594;-68
2021/06/06 07:52:06;;;;;;;45.20;29.67;;;17.60;99.90;;;;;;4995624;28;20628;-68
2021/06/06 07:54:34;;;;;;;51.83;34.97;;;17.40;99.90;;;;;;4995580;28;21215;-67
2021/06/06 07:57:02;;;;;;;52.47;34.03;;;17.30;99.90;;;;;;4995181;28;20581;-67
2021/06/06 07:59:29;;;;;;;51.93;33.70;;;17.50;99.90;;;;;;4995155;28;20632;-67
2021/06/06 08:01:56;;;;;;;50.13;34.00;;;17.60;99.90;;;;;;4995273;28;21247;-67
2021/06/06 08:04:22;;;;;;;47.97;33.10;;;17.70;99.90;;;;;;4993316;28;20657;-67
2021/06/06 08:06:49;;;;;;;44.10;33.30;;;17.90;99.90;;;;;;4995058;28;20624;-67
2021/06/06 08:09:15;;;;;;;48.03;34.83;;;17.90;99.90;;;;;;4995201;28;20632;-68
2021/06/06 08:11:41;;;;;;;42.93;30.23;;;17.90;99.90;;;;;;4994884;28;20964;-66
2021/06/06 08:14:08;;;;;;;39.30;29.90;;;18.00;99.90;;;;;;4993388;28;20687;-68
2021/06/06 08:16:35;;;;;;;45.00;31.40;;;18.20;99.90;;;;;;4994704;28;20622;-67
2021/06/06 08:19:03;;;;;;;42.20;31.53;;;18.20;99.90;;;;;;4994497;28;21178;-68
2021/06/06 08:21:37;;;;;;;48.47;31.83;;;18.20;99.90;;;;;;4994809;28;20601;-68
2021/06/06 08:24:05;;;;;;;43.63;32.67;;;18.20;99.90;;;;;;4995093;28;20668;-67
2021/06/06 08:26:32;;;;;;;47.33;32.87;;;18.30;99.90;;;;;;4993961;28;20636;-67
2021/06/06 08:28:58;;;;;;;42.23;30.80;;;18.10;99.90;;;;;;4994770;28;20645;-68
2021/06/06 08:31:32;;;;;;;42.90;31.80;;;18.00;99.90;;;;;;4994613;28;20624;-67
2021/06/06 08:33:58;;;;;;;50.23;33.20;;;17.90;99.90;;;;;;4994773;28;20621;-67
2021/06/06 08:36:29;;;;;;;45.00;31.57;;;17.80;99.90;;;;;;4993338;28;20604;-67
2021/06/06 08:38:58;;;;;;;47.77;32.80;;;17.70;99.90;;;;;;4994236;28;20621;-67
2021/06/06 08:41:26;;;;;;;45.10;33.00;;;17.80;99.90;;;;;;4994532;28;20679;-67
2021/06/06 08:44:11;;;;;;;43.30;31.80;;;17.90;99.90;;;;;;4994035;28;20678;-67
2021/06/06 08:47:10;;;;;;;41.90;32.27;;;18.20;99.90;;;;;;4994598;28;21132;-67
2021/06/06 08:49:44;;;;;;;44.97;33.27;;;18.10;99.90;;;;;;4993429;28;21164;-68
2021/06/06 08:52:27;;;;;;;44.03;31.63;;;18.10;99.90;;;;;;4994379;28;20550;-67
2021/06/06 08:55:06;;;;;;;47.73;32.60;;;18.00;99.90;;;;;;4994023;28;21179;-68
2021/06/06 08:58:13;;;;;;;43.70;32.20;;;18.10;99.90;;;;;;4993055;28;21145;-68
2021/06/06 09:00:44;;;;;;;45.60;31.47;;;18.40;99.90;;;;;;4986063;28;20641;-67
2021/06/06 09:03:14;;;;;;;44.40;32.93;;;18.60;99.90;;;;;;4994473;28;20597;-68
2021/06/06 09:05:43;;;;;;;38.97;29.67;;;18.60;99.90;;;;;;4992664;28;20659;-68
2021/06/06 09:08:22;;;;;;;36.00;27.33;;;18.60;99.90;;;;;;4994062;28;20660;-67
2021/06/06 09:10:54;;;;;;;34.23;25.13;;;18.90;99.90;;;;;;4994004;28;20573;-68
2021/06/06 09:13:27;;;;;;;32.97;25.07;;;19.30;99.90;;;;;;4994000;28;20590;-68
2021/06/06 09:16:17;;;;;;;29.63;23.27;;;19.70;99.90;;;;;;4994271;28;20716;-67
2021/06/06 09:18:47;;;;;;;33.40;24.40;;;19.80;99.90;;;;;;4993985;28;20633;-68
2021/06/06 09:21:18;;;;;;;31.27;24.60;;;19.60;99.90;;;;;;4976967;28;20637;-67
2021/06/06 09:23:47;;;;;;;24.27;21.10;;;19.80;99.90;;;;;;4994083;28;20951;-68
2021/06/06 09:26:16;;;;;;;27.60;22.60;;;19.50;99.90;;;;;;4992380;28;20721;-68
2021/06/06 09:28:49;;;;;;;29.60;20.93;;;19.50;99.90;;;;;;4993794;28;20604;-68
2021/06/06 09:31:15;;;;;;;29.27;22.27;;;19.30;99.90;;;;;;4992601;28;20657;-67
2021/06/06 09:33:57;;;;;;;25.83;19.73;;;19.40;99.90;;;;;;4993741;28;20601;-68
2021/06/06 09:36:29;;;;;;;26.13;20.20;;;19.70;99.90;;;;;;4994207;28;20573;-68
2021/06/06 09:39:01;;;;;;;22.20;18.77;;;19.80;99.90;;;;;;4993667;28;20632;-68
2021/06/06 09:41:33;;;;;;;24.10;19.30;;;19.90;99.90;;;;;;4993893;28;20673;-67
2021/06/06 09:44:05;;;;;;;24.97;21.00;;;19.90;99.90;;;;;;4993689;28;20764;-68
2021/06/06 09:46:40;;;;;;;23.30;18.57;;;19.90;99.90;;;;;;4993672;28;20644;-68
2021/06/06 09:49:21;;;;;;;20.50;17.80;;;19.80;99.90;;;;;;4992293;28;20647;-68
2021/06/06 09:51:48;;;;;;;23.13;19.83;;;20.20;99.90;;;;;;4993486;28;20597;-68
2021/06/06 09:54:34;;;;;;;23.40;20.03;;;20.30;99.90;;;;;;4993528;28;20604;-68
2021/06/06 09:57:13;;;;;;;26.13;20.33;;;20.20;99.90;;;;;;4995283;28;20558;-67
2021/06/06 09:59:40;;;;;;;25.40;19.37;;;20.20;99.90;;;;;;4997506;28;20923;-65
2021/06/06 10:02:12;;;;;;;26.13;21.70;;;19.90;99.90;;;;;;4997370;28;20648;-68
2021/06/06 10:04:44;;;;;;;25.27;21.47;;;19.90;99.90;;;;;;4997373;28;20653;-68
2021/06/06 10:07:36;;;;;;;24.47;21.20;;;19.80;99.90;;;;;;4997570;28;20624;-68
2021/06/06 10:10:23;;;;;;;26.57;23.00;;;19.90;99.90;;;;;;4997042;28;20614;-68
2021/06/06 10:12:51;;;;;;;28.07;22.30;;;20.00;99.90;;;;;;4997244;28;20560;-67
2021/06/06 10:15:32;;;;;;;30.20;23.50;;;20.00;99.90;;;;;;4997117;28;21144;-67
2021/06/06 10:18:14;;;;;;;28.23;22.77;;;20.20;99.90;;;;;;4997103;28;20567;-67
2021/06/06 10:20:44;;;;;;;27.60;22.03;;;20.20;99.90;;;;;;4996920;28;20565;-67
2021/06/06 10:23:34;;;;;;;27.53;22.07;;;20.10;99.90;;;;;;4997058;28;20625;-67
2021/06/06 10:26:43;;;;;;;22.47;19.27;;;20.60;99.90;;;;;;4996818;28;20952;-68
2021/06/06 10:29:34;;;;;;;20.07;17.87;;;21.70;99.90;;;;;;4996787;28;20558;-68
2021/06/06 10:32:15;;;;;;;20.07;17.47;;;21.70;99.90;;;;;;4996941;28;20585;-68
2021/06/06 10:34:48;;;;;;;20.87;17.67;;;21.50;99.90;;;;;;4996864;28;20632;-68
2021/06/06 10:37:15;;;;;;;21.57;19.27;;;21.50;99.90;;;;;;4996883;28;20928;-66
2021/06/06 10:39:54;;;;;;;23.90;19.80;;;22.00;99.90;;;;;;4996632;28;20969;-67
2021/06/06 10:42:33;;;;;;;21.03;18.37;;;21.00;99.90;;;;;;4996262;28;20618;-68
2021/06/06 10:45:04;;;;;;;23.77;20.33;;;21.40;99.90;;;;;;4996407;28;20665;-67
2021/06/06 10:47:47;;;;;;;21.20;19.17;;;21.20;99.90;;;;;;4996244;28;20628;-67
2021/06/06 10:50:34;;;;;;;19.70;17.30;;;21.70;99.90;;;;;;4996487;28;21147;-68
2021/06/06 10:53:29;;;;;;;19.17;17.37;;;22.40;98.40;;;;;;4985853;28;20636;-66
2021/06/06 10:56:28;;;;;;;21.63;17.10;;;21.60;99.90;;;;;;4993277;28;20637;-66
2021/06/06 10:59:19;;;;;;;16.90;15.10;;;21.90;99.90;;;;;;4996442;28;20561;-68
2021/06/06 11:01:51;;;;;;;17.37;15.60;;;22.00;94.90;;;;;;4996203;28;20732;-67
2021/06/06 11:04:27;;;;;;;18.50;16.10;;;21.90;99.90;;;;;;4996186;28;20602;-69
2021/06/06 11:07:07;;;;;;;19.17;15.63;;;22.10;99.90;;;;;;4996223;28;20573;-66
2021/06/06 11:09:36;;;;;;;17.77;15.97;;;22.60;49.00;;;;;;4995098;28;20581;-68
2021/06/06 11:12:09;;;;;;;20.60;14.33;;;22.40;90.20;;;;;;4994827;28;20696;-68
2021/06/06 11:14:46;;;;;;;14.97;13.47;;;22.90;1.00;;;;;;4995809;28;20617;-68
2021/06/06 11:17:28;;;;;;;15.30;13.70;;;22.90;1.00;;;;;;4995876;28;20629;-68
2021/06/06 11:20:08;;;;;;;15.60;13.93;;;23.20;1.00;;;;;;4995830;28;20713;-68
2021/06/06 11:22:37;;;;;;;15.23;13.77;;;23.10;1.00;;;;;;4996236;28;20661;-67
2021/06/06 11:25:06;;;;;;;15.60;13.53;;;23.20;1.00;;;;;;4995788;28;20688;-67
2021/06/06 11:28:02;;;;;;;15.63;14.03;;;23.30;1.00;;;;;;4995927;28;20606;-69
2021/06/06 11:30:29;;;;;;;12.90;11.70;;;23.30;1.00;;;;;;4995958;28;20646;-67
2021/06/06 11:32:58;;;;;;;16.73;13.17;;;23.80;1.00;;;;;;4995805;28;20594;-68
2021/06/06 11:35:48;;;;;;;12.73;11.53;;;24.10;1.00;;;;;;4995511;28;20589;-67
2021/06/06 11:38:41;;;;;;;13.80;12.50;;;24.20;1.00;;;;;;4995611;28;20629;-67
2021/06/06 11:41:28;;;;;;;12.20;11.10;;;23.50;1.00;;;;;;4995739;28;20649;-67
2021/06/06 11:44:22;;;;;;;12.87;11.60;;;23.90;1.00;;;;;;4995008;28;20654;-68
2021/06/06 11:47:10;;;;;;;13.00;11.70;;;22.70;1.00;;;;;;4995662;28;20622;-67
2021/06/06 11:49:54;;;;;;;13.27;12.07;;;23.40;1.00;;;;;;4995522;28;20614;-68
2021/06/06 11:52:39;;;;;;;12.00;10.80;;;22.90;1.00;;;;;;4995246;28;20699;-68
2021/06/06 11:55:17;;;;;;;10.07;9.27;;;22.80;1.00;;;;;;4995362;28;20550;-67
2021/06/06 11:57:51;;;;;;;11.77;10.67;;;24.20;1.00;;;;;;4995395;28;20554;-68
2021/06/06 12:00:34;;;;;;;10.20;9.27;;;24.10;1.00;;;;;;4996007;28;20685;-68
2021/06/06 12:03:12;;;;;;;11.20;10.20;;;23.70;1.00;;;;;;4994942;28;21043;-67
2021/06/06 12:05:56;;;;;;;10.60;9.60;;;23.40;1.00;;;;;;4995396;28;20633;-68
2021/06/06 12:08:35;;;;;;;11.40;10.30;;;23.30;1.00;;;;;;4994593;28;20626;-68
2021/06/06 12:11:06;;;;;;;12.83;11.63;;;23.40;1.00;;;;;;4993737;28;20622;-68
2021/06/06 12:13:39;;;;;;;14.50;13.10;;;23.00;1.00;;;;;;4995027;28;20605;-68
2021/06/06 12:16:13;;;;;;;11.80;10.70;;;22.10;6.20;;;;;;4994852;28;21186;-68
2021/06/06 12:18:42;;;;;;;12.60;11.17;;;22.50;1.00;;;;;;4994799;28;20577;-68
2021/06/06 12:21:23;;;;;;;13.83;12.47;;;23.00;1.00;;;;;;4994583;28;20594;-66
2021/06/06 12:24:02;;;;;;;15.23;13.73;;;23.00;1.00;;;;;;4994377;28;20637;-67
2021/06/06 12:26:33;;;;;;;13.67;12.33;;;22.40;20.50;;;;;;4994796;28;20609;-68
2021/06/06 12:29:00;;;;;;;13.97;12.50;;;22.50;46.70;;;;;;4993583;28;20567;-68
2021/06/06 12:31:36;;;;;;;13.37;12.07;;;22.70;43.70;;;;;;4994904;28;21178;-68
2021/06/06 12:34:28;;;;;;;11.70;10.60;;;23.40;1.00;;;;;;4994610;28;20568;-68
2021/06/06 12:37:21;;;;;;;11.90;10.73;;;23.40;1.00;;;;;;4994964;28;20685;-68
2021/06/06 12:39:54;;;;;;;12.60;11.40;;;23.90;1.00;;;;;;4994846;28;21199;-67
2021/06/06 12:42:23;;;;;;;14.00;12.70;;;23.90;1.00;;;;;;4994882;28;20922;-67
2021/06/06 12:44:53;;;;;;;14.63;12.27;;;23.00;1.00;;;;;;4993998;28;20669;-67
2021/06/06 12:47:22;;;;;;;13.60;12.20;;;22.60;9.90;;;;;;4994316;28;20718;-67
2021/06/06 12:50:16;;;;;;;12.97;11.73;;;22.70;39.50;;;;;;4994754;28;20877;-67
2021/06/06 12:52:51;;;;;;;19.17;12.60;;;22.50;23.40;;;;;;4986816;28;21103;-67
2021/06/06 12:55:31;;;;;;;13.63;12.33;;;22.70;70.70;;;;;;4994221;28;20625;-68